Terminal Aerodrome Forecast
Issued by NWS

Home | Current Version | Previous Version | Text Only | Print | Product List | Glossary On
Versions: 1 2 3 4 5 6 7 8 9 10 11 12 13 14
000
FTUS45 KTFX 042340
TAFLWT
TAF
KLWT 042340Z 0500/0524 35008KT P6SM SCT020 BKN035
     FM050500 04007KT P6SM -RA BKN020 BKN040
      TEMPO 0507/0511 4SM -RA BKN010
     FM052000 03007KT P6SM -RA BKN050=

USA.gov is the U.S. government's official web portal to all federal, state and local government web resources and services.